Time;durP1;ratioP1;P1;durP2;ratioP2;P2;SDS_P1;SDS_P2;PMS_P1;PMS_P2;Temp;Humidity;BMP_temperature;BMP_pressure;BME280_temperature;BME280_humidity;BME280_pressure;Samples;Min_cycle;Max_cycle;Signal;HPM_P1;HPM_P2
2023/09/03 00:00:20;;;;;;;18.00;8.30;;;;;;;13.62;100.00;101164.64;218214;1288;141347;-89
2023/09/03 00:05:20;;;;;;;13.60;7.50;;;;;;;13.60;100.00;101167.92;218707;1286;139937;-88
2023/09/03 00:10:21;;;;;;;14.80;8.50;;;;;;;13.57;100.00;101174.70;218304;1286;141394;-89
2023/09/03 00:15:23;;;;;;;14.80;8.60;;;;;;;13.54;100.00;101175.85;218858;1287;139576;-89
2023/09/03 00:20:24;;;;;;;15.60;8.00;;;;;;;13.52;100.00;101178.04;218328;1287;141806;-88
2023/09/03 00:25:25;;;;;;;14.50;8.50;;;;;;;13.50;100.00;101171.54;218905;1287;139489;-88
2023/09/03 00:30:25;;;;;;;15.40;9.00;;;;;;;13.49;100.00;101169.95;218355;1288;142576;-89
2023/09/03 00:35:26;;;;;;;13.90;8.50;;;;;;;13.48;100.00;101165.45;218812;1287;139254;-88
2023/09/03 00:40:26;;;;;;;16.50;9.60;;;;;;;13.48;100.00;101168.20;217946;1286;141598;-89
2023/09/03 00:45:27;;;;;;;16.80;9.80;;;;;;;13.45;100.00;101166.90;218818;1287;139942;-89
2023/09/03 00:50:29;;;;;;;16.90;9.20;;;;;;;13.43;100.00;101165.08;218024;1287;140666;-89
2023/09/03 00:55:29;;;;;;;16.30;10.60;;;;;;;13.40;100.00;101163.70;218791;1286;140253;-88
2023/09/03 01:00:30;;;;;;;14.80;10.00;;;;;;;13.37;100.00;101162.23;218226;1288;141339;-89
2023/09/03 01:05:31;;;;;;;13.30;8.70;;;;;;;13.35;100.00;101154.30;218770;1288;139713;-89
2023/09/03 01:10:40;;;;;;;15.20;9.30;;;;;;;13.33;100.00;101164.16;218105;1286;142554;-89
2023/09/03 01:15:47;;;;;;;15.70;9.10;;;;;;;13.31;100.00;101160.34;218758;1287;139908;-90
2023/09/03 01:21:08;;;;;;;15.50;9.10;;;;;;;13.31;100.00;101160.27;218105;1287;143730;-89
2023/09/03 01:26:57;;;;;;;13.90;8.60;;;;;;;13.30;100.00;101160.88;218787;1287;139830;-90
2023/09/03 01:32:00;;;;;;;13.90;9.20;;;;;;;13.29;100.00;101158.02;217997;1288;143247;-89
2023/09/03 01:37:01;;;;;;;15.70;9.00;;;;;;;13.29;100.00;101166.00;218805;1287;139838;-89
2023/09/03 01:42:01;;;;;;;17.30;10.00;;;;;;;13.27;100.00;101167.34;218178;1288;142392;-89
2023/09/03 01:47:21;;;;;;;12.70;7.80;;;;;;;13.25;100.00;101172.52;218604;1286;140479;-90
2023/09/03 01:52:49;;;;;;;13.00;8.70;;;;;;;13.24;100.00;101172.74;218084;1288;141065;-89
2023/09/03 01:57:57;;;;;;;13.50;9.00;;;;;;;13.22;100.00;101170.11;218519;1286;140063;-90
2023/09/03 02:03:00;;;;;;;16.80;10.00;;;;;;;13.21;100.00;101154.14;218287;1287;141783;-89
2023/09/03 02:08:01;;;;;;;16.10;10.20;;;;;;;13.20;100.00;101151.61;218852;1286;139972;-89
2023/09/03 02:13:01;;;;;;;18.60;10.20;;;;;;;13.19;100.00;101151.59;218057;1287;141841;-89
2023/09/03 02:18:01;;;;;;;17.30;11.20;;;;;;;13.16;100.00;101143.98;218956;1286;97142;-89
2023/09/03 02:23:02;;;;;;;16.70;10.90;;;;;;;13.15;100.00;101140.18;218275;1287;140801;-89
2023/09/03 02:28:03;;;;;;;17.50;10.40;;;;;;;13.12;100.00;101136.59;218773;1286;140138;-88
2023/09/03 02:33:03;;;;;;;15.10;10.30;;;;;;;13.09;100.00;101130.54;218332;1288;142240;-88
2023/09/03 02:38:05;;;;;;;17.70;10.60;;;;;;;13.05;100.00;101121.42;218859;1288;140023;-88
2023/09/03 02:43:05;;;;;;;16.50;10.20;;;;;;;13.01;100.00;101116.09;218272;1287;141842;-88
2023/09/03 02:48:11;;;;;;;15.90;10.40;;;;;;;12.99;100.00;101123.33;218713;1287;96262;-89
2023/09/03 02:53:12;;;;;;;17.70;11.10;;;;;;;12.95;100.00;101118.11;218127;1288;142757;-88
2023/09/03 02:58:12;;;;;;;14.90;10.30;;;;;;;12.91;100.00;101113.55;218835;1286;140520;-88
2023/09/03 03:03:12;;;;;;;15.80;10.50;;;;;;;12.88;100.00;101113.75;218290;1288;140859;-88
2023/09/03 03:08:13;;;;;;;15.40;10.30;;;;;;;12.85;100.00;101116.55;218804;1288;140080;-88
2023/09/03 03:13:13;;;;;;;18.60;10.20;;;;;;;12.80;100.00;101110.10;218338;1288;141226;-88
2023/09/03 03:18:14;;;;;;;14.70;10.40;;;;;;;12.76;100.00;101116.61;218914;1285;96010;-88
2023/09/03 03:23:14;;;;;;;16.10;11.00;;;;;;;12.72;100.00;101119.79;218314;1288;210414;-88
2023/09/03 03:28:14;;;;;;;18.30;10.20;;;;;;;12.69;100.00;101129.13;218850;1287;139855;-87
2023/09/03 03:33:15;;;;;;;19.20;10.40;;;;;;;12.67;100.00;101137.77;218256;1288;141163;-88
2023/09/03 03:38:15;;;;;;;15.10;9.80;;;;;;;12.67;100.00;101145.36;218641;1287;139980;-89
2023/09/03 03:43:16;;;;;;;20.00;9.60;;;;;;;12.67;100.00;101150.89;218276;1287;141764;-88
2023/09/03 03:48:16;;;;;;;15.20;9.70;;;;;;;12.69;100.00;101151.77;218891;1287;96355;-89
2023/09/03 03:53:16;;;;;;;14.70;10.10;;;;;;;12.73;100.00;101155.85;218268;1285;140321;-89
2023/09/03 03:58:17;;;;;;;18.10;11.70;;;;;;;12.76;100.00;101150.77;218872;1287;139726;-88
2023/09/03 04:03:17;;;;;;;14.10;10.00;;;;;;;12.80;100.00;101155.96;218074;1286;143859;-87
2023/09/03 04:08:18;;;;;;;15.40;11.00;;;;;;;12.83;100.00;101158.45;218825;1286;139522;-87
2023/09/03 04:13:18;;;;;;;16.30;10.90;;;;;;;12.85;100.00;101163.11;218042;1288;140355;-87
2023/09/03 04:18:19;;;;;;;17.30;10.40;;;;;;;12.86;100.00;101164.56;218861;1285;96385;-88
2023/09/03 04:23:20;;;;;;;16.60;11.70;;;;;;;12.87;100.00;101167.97;218276;1287;141274;-87
2023/09/03 04:28:20;;;;;;;16.10;11.70;;;;;;;12.89;100.00;101171.16;218858;1287;140672;-88
2023/09/03 04:33:21;;;;;;;19.10;12.50;;;;;;;12.90;100.00;101166.90;218246;1288;142846;-88
2023/09/03 04:38:22;;;;;;;17.00;11.70;;;;;;;12.93;100.00;101166.47;218727;1289;139758;-87
2023/09/03 04:43:23;;;;;;;16.30;10.60;;;;;;;12.96;100.00;101169.83;218285;1287;143151;-86
2023/09/03 04:48:23;;;;;;;18.30;11.90;;;;;;;12.98;100.00;101176.14;218882;1286;96289;-87
2023/09/03 04:53:24;;;;;;;16.90;12.70;;;;;;;13.02;100.00;101179.58;218257;1288;140557;-87
2023/09/03 04:58:25;;;;;;;16.90;11.30;;;;;;;13.08;100.00;101179.66;218617;1286;139316;-87
2023/09/03 05:03:25;;;;;;;17.20;11.40;;;;;;;13.11;100.00;101178.59;218067;1287;141797;-87
2023/09/03 05:08:26;;;;;;;16.40;10.50;;;;;;;13.16;100.00;101181.02;218768;1287;139412;-86
2023/09/03 05:13:27;;;;;;;19.30;12.10;;;;;;;13.24;100.00;101196.92;217901;1288;141641;-87
2023/09/03 05:18:27;;;;;;;19.70;12.30;;;;;;;13.33;100.00;101204.99;218824;1288;96238;-87
2023/09/03 05:23:27;;;;;;;18.50;11.10;;;;;;;13.42;100.00;101211.73;218261;1287;140870;-88
2023/09/03 05:28:28;;;;;;;17.10;11.40;;;;;;;13.51;100.00;101209.09;218755;1291;140648;-87
2023/09/03 05:33:28;;;;;;;17.30;11.10;;;;;;;13.64;100.00;101219.36;218225;1286;142219;-87
2023/09/03 05:38:29;;;;;;;21.70;12.70;;;;;;;13.77;100.00;101220.84;218519;1288;140419;-87
2023/09/03 05:43:29;;;;;;;19.00;11.90;;;;;;;13.93;100.00;101217.38;218198;1288;140992;-87
2023/09/03 05:48:30;;;;;;;16.80;12.90;;;;;;;14.13;100.00;101216.85;218922;1288;96060;-86
2023/09/03 05:53:31;;;;;;;16.50;11.10;;;;;;;14.36;100.00;101214.63;218251;1289;140264;-86
2023/09/03 05:58:32;;;;;;;20.00;13.00;;;;;;;14.62;100.00;101222.84;218688;1288;139212;-87
2023/09/03 06:03:34;;;;;;;16.10;11.00;;;;;;;14.90;100.00;101218.13;218022;1288;141795;-87
2023/09/03 06:08:36;;;;;;;17.50;10.20;;;;;;;15.15;100.00;101227.98;218626;1288;139896;-87
2023/09/03 06:13:37;;;;;;;14.10;10.20;;;;;;;15.40;100.00;101226.64;218045;1288;142508;-87
2023/09/03 06:18:37;;;;;;;15.40;9.70;;;;;;;15.65;100.00;101228.95;218821;1288;97190;-87
2023/09/03 06:23:38;;;;;;;14.00;9.30;;;;;;;15.89;100.00;101229.66;218215;1287;142106;-87
2023/09/03 06:28:38;;;;;;;14.60;10.30;;;;;;;16.06;100.00;101227.79;218814;1286;139762;-86
2023/09/03 06:33:42;;;;;;;14.80;10.00;;;;;;;16.17;100.00;101234.63;218209;1286;141753;-87
2023/09/03 06:38:43;;;;;;;15.30;9.60;;;;;;;16.32;100.00;101242.90;218780;1288;141728;-87
2023/09/03 06:43:44;;;;;;;16.10;9.90;;;;;;;16.50;100.00;101246.73;218138;1289;142010;-88
2023/09/03 06:48:44;;;;;;;15.30;9.30;;;;;;;16.69;100.00;101241.80;218784;1286;139226;-88
2023/09/03 06:53:45;;;;;;;12.80;8.60;;;;;;;16.90;100.00;101242.02;218374;1289;140974;-88
2023/09/03 06:58:45;;;;;;;13.70;9.00;;;;;;;17.09;100.00;101244.36;218793;1289;139204;-88
2023/09/03 07:03:45;;;;;;;15.10;8.50;;;;;;;17.31;100.00;101246.30;218087;1286;141950;-88
2023/09/03 07:08:46;;;;;;;14.00;7.20;;;;;;;17.57;100.00;101256.39;218544;1291;139910;-88
2023/09/03 07:13:46;;;;;;;12.40;7.30;;;;;;;17.85;100.00;101261.52;218195;1288;140720;-88
2023/09/03 07:18:47;;;;;;;12.70;6.70;;;;;;;18.09;100.00;101276.65;218756;1288;140116;-89
2023/09/03 07:23:47;;;;;;;12.30;6.70;;;;;;;18.34;100.00;101286.77;218285;1288;142011;-88
2023/09/03 07:28:47;;;;;;;11.90;7.20;;;;;;;18.61;100.00;101290.09;218836;1286;139523;-88
2023/09/03 07:33:48;;;;;;;13.30;7.00;;;;;;;18.87;100.00;101304.06;218080;1288;141152;-88
2023/09/03 07:38:49;;;;;;;11.10;6.50;;;;;;;19.10;100.00;101312.37;218653;1286;140243;-89
2023/09/03 07:43:51;;;;;;;10.90;6.00;;;;;;;19.31;100.00;101318.17;218191;1286;141383;-88
2023/09/03 07:48:52;;;;;;;11.10;5.90;;;;;;;19.50;100.00;101316.68;218776;1291;140326;-88
2023/09/03 07:53:53;;;;;;;10.00;6.20;;;;;;;19.71;100.00;101328.89;218067;1288;141728;-88
2023/09/03 07:58:53;;;;;;;9.30;5.70;;;;;;;19.92;100.00;101326.08;218682;1285;140691;-88
2023/09/03 08:03:56;;;;;;;8.60;5.20;;;;;;;20.10;99.93;101328.08;218095;1291;142041;-88
2023/09/03 08:08:56;;;;;;;8.70;4.60;;;;;;;20.37;99.85;101335.00;218748;1289;139468;-88
2023/09/03 08:13:59;;;;;;;9.90;5.10;;;;;;;20.58;100.00;101332.84;218085;1288;140491;-88
2023/09/03 08:19:00;;;;;;;10.10;5.00;;;;;;;20.83;99.29;101335.33;218660;1288;140100;-88
2023/09/03 08:24:00;;;;;;;11.80;5.70;;;;;;;21.06;98.19;101345.73;218324;1289;140101;-88
2023/09/03 08:29:01;;;;;;;10.90;5.30;;;;;;;21.29;97.47;101350.13;218705;1289;139993;-88
2023/09/03 08:34:01;;;;;;;8.70;4.90;;;;;;;21.51;94.62;101338.13;217985;1289;141188;-88
2023/09/03 08:39:02;;;;;;;8.30;4.40;;;;;;;21.55;94.31;101330.04;218680;1287;139645;-88
2023/09/03 08:44:06;;;;;;;7.70;4.10;;;;;;;21.77;91.77;101334.34;218183;1288;139696;-87
2023/09/03 08:49:07;;;;;;;9.10;4.10;;;;;;;21.95;92.51;101339.34;218033;1289;141166;-87
2023/09/03 08:54:08;;;;;;;6.50;3.50;;;;;;;22.23;91.32;101346.74;218657;1288;97111;-89
2023/09/03 08:59:09;;;;;;;7.30;3.50;;;;;;;22.55;90.73;101352.91;218141;1289;140297;-88
2023/09/03 09:04:14;;;;;;;7.20;3.40;;;;;;;22.91;89.06;101358.64;218631;1289;139994;-87
2023/09/03 09:09:16;;;;;;;8.10;3.60;;;;;;;23.18;86.49;101363.02;217892;1291;141379;-88
2023/09/03 09:14:26;;;;;;;6.20;3.20;;;;;;;23.47;84.63;101356.40;218508;1286;138898;-86
2023/09/03 09:19:26;;;;;;;9.40;3.50;;;;;;;23.77;81.96;101357.87;217943;1290;142094;-88
2023/09/03 09:24:27;;;;;;;5.60;2.70;;;;;;;24.06;81.07;101350.79;218442;1287;97274;-88
2023/09/03 09:29:28;;;;;;;6.20;2.90;;;;;;;24.51;79.43;101352.33;218183;1289;140501;-88
2023/09/03 09:34:39;;;;;;;7.00;3.40;;;;;;;24.73;75.43;101348.34;218730;1286;138971;-87
2023/09/03 09:39:49;;;;;;;5.60;3.10;;;;;;;25.23;77.16;101344.40;217901;1289;141083;-87
2023/09/03 09:44:56;;;;;;;4.70;2.40;;;;;;;25.76;73.34;101346.11;218497;1291;138931;-87
2023/09/03 09:49:56;;;;;;;8.10;3.20;;;;;;;26.07;71.22;101350.21;218063;1290;139829;-89
2023/09/03 09:54:58;;;;;;;7.20;3.30;;;;;;;26.34;70.32;101354.41;218391;1289;138961;-88
2023/09/03 10:00:04;;;;;;;5.80;3.00;;;;;;;26.68;69.77;101357.31;218197;1289;142408;-90
2023/09/03 10:05:09;;;;;;;5.50;3.00;;;;;;;26.86;67.43;101357.82;218422;1287;138320;-89
2023/09/03 10:10:09;;;;;;;5.90;3.00;;;;;;;27.04;66.30;101357.05;218177;1287;141414;-88
2023/09/03 10:15:13;;;;;;;4.20;2.40;;;;;;;27.16;64.32;101364.88;218419;1288;138637;-89
2023/09/03 10:20:16;;;;;;;4.30;2.10;;;;;;;27.29;62.78;101365.52;217741;1288;140617;-89
2023/09/03 10:25:20;;;;;;;5.80;2.40;;;;;;;27.48;63.29;101365.20;218507;1286;138744;-88
2023/09/03 10:30:28;;;;;;;5.50;2.80;;;;;;;27.71;61.40;101365.45;218060;1291;139340;-87
2023/09/03 10:35:28;;;;;;;6.80;2.60;;;;;;;27.71;60.65;101362.52;218374;1288;138597;-87
2023/09/03 10:40:29;;;;;;;5.80;2.80;;;;;;;27.81;59.91;101361.63;218144;1288;142311;-88
2023/09/03 10:45:30;;;;;;;6.10;3.20;;;;;;;27.99;58.61;101357.30;218658;1286;138671;-87
2023/09/03 10:50:44;;;;;;;5.20;2.70;;;;;;;28.11;57.93;101367.10;217814;1287;141133;-88
2023/09/03 10:56:05;;;;;;;6.40;2.90;;;;;;;28.26;53.63;101361.40;218382;1288;138991;-88
2023/09/03 11:01:21;;;;;;;6.10;2.80;;;;;;;28.28;54.31;101363.92;217878;1286;318326;-89
2023/09/03 11:06:26;;;;;;;5.40;2.60;;;;;;;28.61;54.27;101363.45;218666;1288;96041;-87
2023/09/03 11:11:33;;;;;;;6.00;2.10;;;;;;;28.79;54.42;101359.47;218145;1285;140075;-89
2023/09/03 11:16:40;;;;;;;7.40;2.60;;;;;;;28.83;53.02;101362.94;218600;1288;138071;-88
2023/09/03 11:21:40;;;;;;;4.90;2.80;;;;;;;28.57;52.47;101360.10;217903;1288;139730;-89
2023/09/03 11:26:42;;;;;;;7.50;2.80;;;;;;;28.66;52.49;101360.52;218397;1288;138827;-89
2023/09/03 11:31:47;;;;;;;6.80;2.50;;;;;;;28.73;52.18;101365.19;217779;1291;140231;-88
2023/09/03 11:36:47;;;;;;;6.20;2.20;;;;;;;28.87;52.97;101355.27;218299;1288;138623;-87
2023/09/03 11:41:54;;;;;;;8.00;2.50;;;;;;;28.81;52.10;101357.27;217989;1288;141243;-90
2023/09/03 11:46:59;;;;;;;7.40;3.00;;;;;;;28.81;52.33;101358.48;218324;1288;138122;-87
2023/09/03 11:52:13;;;;;;;6.40;2.80;;;;;;;28.84;50.40;101361.33;218157;1286;140755;-90
2023/09/03 11:57:17;;;;;;;4.60;2.40;;;;;;;28.82;50.81;101368.65;218566;1288;139401;-88
2023/09/03 12:02:18;;;;;;;4.70;2.30;;;;;;;28.75;52.00;101364.66;217946;1288;141332;-86
2023/09/03 12:07:19;;;;;;;6.70;2.30;;;;;;;28.73;52.33;101355.76;218687;1288;138362;-89
2023/09/03 12:12:19;;;;;;;4.00;2.10;;;;;;;28.40;50.97;101362.18;218144;1286;140917;-87
2023/09/03 12:17:27;;;;;;;4.90;2.60;;;;;;;28.26;52.51;101362.28;218535;1286;139287;-86
2023/09/03 12:22:28;;;;;;;5.10;2.40;;;;;;;28.10;52.22;101363.29;217942;1289;139892;-86
2023/09/03 12:27:29;;;;;;;6.20;2.40;;;;;;;28.01;51.72;101363.94;218493;1286;138708;-86
2023/09/03 12:32:35;;;;;;;6.40;2.40;;;;;;;27.75;52.25;101366.56;217994;1288;139619;-87
2023/09/03 12:37:40;;;;;;;6.00;2.80;;;;;;;27.63;52.39;101362.90;218708;1286;138908;-88
2023/09/03 12:42:40;;;;;;;6.20;2.90;;;;;;;27.61;52.65;101364.54;218239;1289;140036;-87
2023/09/03 12:47:42;;;;;;;6.10;2.60;;;;;;;27.37;50.92;101359.67;218931;1288;96068;-87
2023/09/03 12:52:43;;;;;;;5.40;2.90;;;;;;;27.04;52.75;101358.02;218352;1286;143147;-88
2023/09/03 12:57:43;;;;;;;5.40;2.80;;;;;;;26.91;53.60;101354.95;218504;1287;139340;-86
2023/09/03 13:02:44;;;;;;;6.10;2.70;;;;;;;26.82;53.56;101357.15;218213;1287;139897;-86
2023/09/03 13:07:45;;;;;;;5.80;3.40;;;;;;;26.66;54.26;101361.39;218831;1288;138625;-87
2023/09/03 13:12:45;;;;;;;4.20;2.40;;;;;;;26.46;54.10;101364.81;218276;1287;141029;-88
2023/09/03 13:17:49;;;;;;;6.50;3.00;;;;;;;26.37;55.15;101368.09;218957;1286;95992;-88
2023/09/03 13:22:50;;;;;;;6.50;2.90;;;;;;;26.13;55.47;101369.89;218191;1286;140214;-88
2023/09/03 13:27:50;;;;;;;6.40;3.00;;;;;;;25.90;56.57;101376.50;218822;1287;138369;-87
2023/09/03 13:32:51;;;;;;;5.80;3.10;;;;;;;25.60;56.76;101392.22;218121;1288;140656;-89
2023/09/03 13:37:51;;;;;;;8.40;3.30;;;;;;;25.48;57.77;101396.23;218679;1288;138757;-87
2023/09/03 13:42:52;;;;;;;8.10;3.30;;;;;;;25.36;57.65;101397.20;218127;1289;139978;-87
2023/09/03 13:47:52;;;;;;;7.90;3.50;;;;;;;25.08;57.53;101401.02;218956;1287;95966;-87
2023/09/03 13:52:58;;;;;;;6.00;3.00;;;;;;;24.86;58.80;101408.42;218357;1286;140372;-88
2023/09/03 13:57:58;;;;;;;;;;;;;;;24.66;59.43;101410.73;218800;1288;138453;-86
2023/09/03 14:02:59;;;;;;;8.60;3.90;;;;;;;24.61;60.38;101412.33;218368;1287;128343;-87
2023/09/03 14:07:59;;;;;;;7.80;3.60;;;;;;;24.35;60.14;101420.01;218673;1288;138827;-86
2023/09/03 14:13:00;;;;;;;6.40;2.80;;;;;;;24.04;61.43;101423.19;218295;1287;142858;-87
2023/09/03 14:18:01;;;;;;;7.00;2.50;;;;;;;23.80;62.09;101428.09;218930;1286;95779;-88
2023/09/03 14:23:01;;;;;;;8.40;2.80;;;;;;;23.58;63.36;101434.55;218087;1287;139778;-86
2023/09/03 14:28:02;;;;;;;5.60;2.50;;;;;;;23.31;63.85;101438.61;218850;1287;138582;-86
2023/09/03 14:33:03;;;;;;;5.40;2.30;;;;;;;23.07;64.82;101427.23;218265;1287;139936;-86
2023/09/03 14:38:04;;;;;;;9.10;2.80;;;;;;;22.91;64.62;101427.46;218521;1287;138168;-86
2023/09/03 14:43:04;;;;;;;5.90;2.80;;;;;;;22.80;64.98;101423.16;218100;1286;151821;-87
2023/09/03 14:48:05;;;;;;;5.40;2.40;;;;;;;22.64;65.06;101420.88;218946;1286;95957;-86
2023/09/03 14:53:06;;;;;;;3.60;2.10;;;;;;;22.52;65.87;101427.96;218323;1285;139869;-86
2023/09/03 14:58:06;;;;;;;10.20;3.60;;;;;;;22.40;66.54;101438.47;218894;1285;138192;-86
2023/09/03 15:03:06;;;;;;;7.70;3.20;;;;;;;22.20;67.33;101435.35;218076;1288;140238;-87
2023/09/03 15:08:07;;;;;;;6.70;2.80;;;;;;;22.03;67.93;101438.58;218828;1288;138140;-87
2023/09/03 15:13:07;;;;;;;9.70;3.30;;;;;;;21.85;68.53;101440.77;218163;1288;139012;-87
2023/09/03 15:18:08;;;;;;;4.80;2.50;;;;;;;21.73;68.82;101450.35;218946;1287;96456;-88
2023/09/03 15:23:09;;;;;;;6.60;3.20;;;;;;;21.55;68.80;101454.02;218372;1285;140737;-87
2023/09/03 15:28:09;;;;;;;5.30;2.40;;;;;;;21.37;68.61;101456.89;218879;1286;138673;-87
2023/09/03 15:33:10;;;;;;;8.20;2.40;;;;;;;21.19;68.95;101455.27;218391;1286;140013;-87
2023/09/03 15:38:11;;;;;;;6.10;2.20;;;;;;;21.04;69.38;101452.78;218835;1285;139124;-87
2023/09/03 15:43:12;;;;;;;5.70;2.10;;;;;;;20.91;69.88;101457.55;218004;1285;139931;-88
2023/09/03 15:48:13;;;;;;;6.00;2.10;;;;;;;20.78;70.13;101467.05;218832;1287;95910;-88
2023/09/03 15:53:13;;;;;;;4.30;2.60;;;;;;;20.67;70.62;101479.29;218286;1287;140154;-87
2023/09/03 15:58:21;;;;;;;6.40;2.10;;;;;;;20.60;71.12;101474.58;218804;1285;138020;-88
2023/09/03 16:03:25;;;;;;;5.50;1.80;;;;;;;20.52;70.93;101469.89;217829;1288;140622;-87
2023/09/03 16:08:26;;;;;;;5.20;1.80;;;;;;;20.43;70.23;101474.64;218460;1288;138914;-88
2023/09/03 16:13:27;;;;;;;4.30;1.70;;;;;;;20.27;70.22;101478.77;217741;1289;140644;-88
2023/09/03 16:18:28;;;;;;;7.50;2.20;;;;;;;20.16;70.00;101476.48;218576;1287;96009;-86
2023/09/03 16:23:28;;;;;;;4.20;2.40;;;;;;;20.03;70.08;101477.73;218166;1288;140593;-87
2023/09/03 16:28:29;;;;;;;6.20;2.00;;;;;;;19.90;70.55;101482.10;218755;1288;138522;-87
2023/09/03 16:33:30;;;;;;;7.70;2.10;;;;;;;19.79;70.61;101486.66;217928;1287;140290;-86
2023/09/03 16:38:30;;;;;;;5.80;1.90;;;;;;;19.60;70.57;101491.89;218498;1287;138914;-88
2023/09/03 16:43:32;;;;;;;4.20;1.60;;;;;;;19.45;70.58;101493.85;217657;1289;139588;-87
2023/09/03 16:48:32;;;;;;;5.00;1.90;;;;;;;19.30;70.83;101490.95;218677;1288;96821;-87
2023/09/03 16:53:33;;;;;;;7.00;1.90;;;;;;;19.19;71.26;101495.63;218227;1286;140654;-86
2023/09/03 16:58:34;;;;;;;3.70;1.60;;;;;;;19.11;71.68;101495.34;218730;1287;138145;-87
2023/09/03 17:03:35;;;;;;;4.80;2.30;;;;;;;19.03;72.00;101502.89;217956;1286;143102;-87
2023/09/03 17:08:35;;;;;;;4.60;2.10;;;;;;;18.93;72.36;101507.59;218785;1285;138291;-87
2023/09/03 17:13:35;;;;;;;6.00;1.90;;;;;;;18.86;72.78;101519.11;218186;1288;140628;-87
2023/09/03 17:18:36;;;;;;;10.00;2.40;;;;;;;18.77;73.15;101516.84;218652;1288;97437;-86
2023/09/03 17:23:40;;;;;;;5.60;2.30;;;;;;;18.68;73.55;101527.71;218201;1287;140221;-87
2023/09/03 17:28:40;;;;;;;6.00;2.70;;;;;;;18.60;73.85;101521.05;218671;1286;138577;-86
2023/09/03 17:33:41;;;;;;;6.20;2.60;;;;;;;18.53;74.60;101525.55;218292;1287;140408;-86
2023/09/03 17:38:42;;;;;;;5.80;2.90;;;;;;;18.45;74.98;101533.14;218825;1286;138354;-87
2023/09/03 17:43:43;;;;;;;6.80;2.20;;;;;;;18.37;75.27;101533.25;218189;1288;141471;-87
2023/09/03 17:48:46;;;;;;;5.60;2.40;;;;;;;18.26;75.75;101537.95;218575;1286;138967;-85
2023/09/03 17:53:47;;;;;;;11.20;2.70;;;;;;;18.18;76.34;101543.63;218223;1286;141705;-87
2023/09/03 17:58:47;;;;;;;7.00;2.60;;;;;;;18.10;76.80;101555.41;218281;1288;138909;-85
2023/09/03 18:03:48;;;;;;;7.00;2.50;;;;;;;18.02;77.23;101558.70;217915;1288;142075;-87
2023/09/03 18:08:48;;;;;;;5.30;2.30;;;;;;;17.96;77.50;101558.38;218639;1288;139050;-88
2023/09/03 18:13:49;;;;;;;6.40;2.50;;;;;;;17.93;77.91;101561.80;218097;1287;140636;-86
2023/09/03 18:18:49;;;;;;;9.60;2.80;;;;;;;17.88;78.57;101548.04;218713;1288;138949;-88
2023/09/03 18:23:50;;;;;;;4.80;2.20;;;;;;;17.79;79.02;101548.29;218080;1288;142239;-86
2023/09/03 18:28:50;;;;;;;4.70;2.60;;;;;;;17.68;79.44;101552.83;218693;1288;140192;-87
2023/09/03 18:33:51;;;;;;;7.70;2.50;;;;;;;17.61;79.89;101549.97;217925;1288;140327;-88
2023/09/03 18:38:53;;;;;;;6.10;2.30;;;;;;;17.55;80.42;101543.36;218476;1288;139362;-89
2023/09/03 18:43:54;;;;;;;5.40;2.00;;;;;;;17.47;80.64;101546.30;218045;1288;141171;-88
2023/09/03 18:48:56;;;;;;;4.60;2.40;;;;;;;17.43;81.17;101553.21;218530;1287;138552;-89
2023/09/03 18:53:56;;;;;;;7.30;2.70;;;;;;;17.41;81.51;101549.33;218150;1288;141512;-90
2023/09/03 18:58:58;;;;;;;5.40;2.40;;;;;;;17.36;81.58;101547.05;218691;1287;139362;-88
2023/09/03 19:03:59;;;;;;;5.60;2.10;;;;;;;17.28;81.83;101563.25;218117;1287;140742;-89
2023/09/03 19:09:01;;;;;;;5.70;2.50;;;;;;;17.19;82.49;101578.83;218515;1287;139017;-87
2023/09/03 19:14:02;;;;;;;7.60;2.70;;;;;;;17.15;82.92;101572.77;218036;1287;140502;-89
2023/09/03 19:19:03;;;;;;;6.90;2.10;;;;;;;17.11;83.76;101566.95;218222;1288;141315;-85
2023/09/03 19:24:04;;;;;;;5.10;2.30;;;;;;;17.02;84.36;101562.48;218694;1287;96507;-89
2023/09/03 19:29:05;;;;;;;8.60;2.60;;;;;;;16.95;85.17;101565.71;218111;1287;140524;-89
2023/09/03 19:34:05;;;;;;;4.80;2.30;;;;;;;16.90;85.26;101562.61;218665;1288;138876;-89
2023/09/03 19:39:06;;;;;;;6.10;2.70;;;;;;;16.87;85.61;101557.83;217938;1285;141174;-88
2023/09/03 19:44:06;;;;;;;7.50;3.40;;;;;;;16.82;86.01;101560.35;218627;1287;139553;-88
2023/09/03 19:49:09;;;;;;;5.70;2.70;;;;;;;16.74;86.47;101556.59;218157;1285;140490;-87
2023/09/03 19:54:12;;;;;;;9.30;2.90;;;;;;;16.70;86.95;101553.79;218576;1289;96183;-87
2023/09/03 19:59:12;;;;;;;7.70;3.50;;;;;;;16.64;87.33;101562.73;218090;1288;141146;-87
2023/09/03 20:04:12;;;;;;;9.00;3.00;;;;;;;16.59;87.64;101564.77;219090;1286;138861;-87
2023/09/03 20:09:13;;;;;;;7.10;3.10;;;;;;;16.53;88.08;101573.95;218189;1288;141067;-87
2023/09/03 20:14:13;;;;;;;8.50;4.60;;;;;;;16.51;88.20;101563.63;218682;1287;139719;-87
2023/09/03 20:19:14;;;;;;;7.80;3.60;;;;;;;16.53;88.32;101554.19;218114;1287;140585;-88
2023/09/03 20:24:18;;;;;;;9.00;4.00;;;;;;;16.50;88.76;101554.82;218471;1288;96031;-87
2023/09/03 20:29:18;;;;;;;7.80;3.50;;;;;;;16.46;89.14;101565.90;218013;1289;141665;-87
2023/09/03 20:34:19;;;;;;;8.30;3.50;;;;;;;16.41;89.22;101559.61;218659;1286;139247;-88
2023/09/03 20:39:19;;;;;;;7.00;3.60;;;;;;;16.37;89.70;101572.34;218117;1287;140973;-88
2023/09/03 20:44:20;;;;;;;12.00;3.60;;;;;;;16.34;89.75;101573.67;218378;1287;139049;-87
2023/09/03 20:49:20;;;;;;;10.20;3.70;;;;;;;16.33;89.74;101571.67;218060;1286;141327;-87
2023/09/03 20:54:21;;;;;;;9.00;3.60;;;;;;;16.33;90.14;101573.52;218767;1288;96625;-87
2023/09/03 20:59:21;;;;;;;7.60;3.10;;;;;;;16.28;90.67;101582.91;217989;1286;141339;-87
2023/09/03 21:04:22;;;;;;;9.10;3.00;;;;;;;16.24;90.71;101591.23;218677;1288;138735;-87
2023/09/03 21:09:22;;;;;;;7.90;3.50;;;;;;;16.24;91.27;101589.80;218151;1287;140964;-87
2023/09/03 21:14:23;;;;;;;7.90;3.40;;;;;;;16.22;91.22;101592.64;218499;1289;139739;-87
2023/09/03 21:19:23;;;;;;;10.40;4.10;;;;;;;16.23;91.59;101597.80;218181;1288;142575;-88
2023/09/03 21:24:24;;;;;;;9.40;3.80;;;;;;;16.22;91.81;101606.13;218812;1288;96100;-87
2023/09/03 21:29:29;;;;;;;7.90;3.20;;;;;;;16.23;92.40;101613.45;217949;1286;140776;-88
2023/09/03 21:34:29;;;;;;;9.20;3.40;;;;;;;16.22;92.51;101617.48;218445;1288;139312;-87
2023/09/03 21:39:30;;;;;;;9.20;3.10;;;;;;;16.22;92.53;101620.34;218084;1288;142345;-87
2023/09/03 21:44:31;;;;;;;10.10;3.30;;;;;;;16.23;93.12;101625.51;218504;1288;139713;-88
2023/09/03 21:49:32;;;;;;;7.50;2.80;;;;;;;16.22;93.47;101623.11;218236;1288;140728;-88
2023/09/03 21:54:32;;;;;;;8.70;3.70;;;;;;;16.23;93.18;101616.55;218876;1286;96065;-88
2023/09/03 21:59:33;;;;;;;8.00;3.50;;;;;;;16.24;93.74;101605.59;218262;1287;141661;-88
2023/09/03 22:04:33;;;;;;;10.70;3.70;;;;;;;16.24;93.80;101601.23;218560;1286;138846;-88
2023/09/03 22:09:34;;;;;;;7.30;3.20;;;;;;;16.22;94.21;101602.65;218021;1289;142045;-88
2023/09/03 22:14:35;;;;;;;7.30;3.30;;;;;;;16.20;94.61;101606.52;218681;1288;139012;-88
2023/09/03 22:19:36;;;;;;;10.20;3.80;;;;;;;16.18;94.92;101613.58;218125;1288;142238;-88
2023/09/03 22:24:36;;;;;;;12.90;3.20;;;;;;;16.17;94.56;101623.79;218779;1287;96567;-87
2023/09/03 22:29:37;;;;;;;9.70;3.40;;;;;;;16.17;94.95;101631.73;217906;1288;141529;-88
2023/09/03 22:34:37;;;;;;;6.90;3.00;;;;;;;16.17;95.20;101637.84;218777;1286;139328;-87